createdAt,value
2023-05-10T00:01:13.667Z,64.40
2023-05-10T00:03:46.563Z,64.30
2023-05-10T00:06:19.316Z,64.20
2023-05-10T00:08:51.874Z,64.10
2023-05-10T00:11:24.428Z,64.00
2023-05-10T00:13:56.940Z,64.00
2023-05-10T00:16:29.623Z,64.00
2023-05-10T00:19:02.261Z,63.90
2023-05-10T00:21:34.997Z,64.00
2023-05-10T00:24:07.734Z,64.00
2023-05-10T00:26:40.332Z,64.00
2023-05-10T00:29:13.226Z,63.90
2023-05-10T00:31:45.869Z,63.90
2023-05-10T00:34:18.443Z,63.80
2023-05-10T00:36:51.121Z,63.80
2023-05-10T00:39:23.817Z,63.80
2023-05-10T00:41:56.403Z,63.90
2023-05-10T00:44:29.235Z,63.90
2023-05-10T00:47:02.003Z,63.70
2023-05-10T00:49:34.711Z,63.70
2023-05-10T00:52:07.565Z,63.70
2023-05-10T00:54:40.402Z,63.70
2023-05-10T00:57:12.969Z,63.70
2023-05-10T00:59:45.959Z,63.60
2023-05-10T01:02:19.526Z,63.60
2023-05-10T01:04:53.153Z,63.60
2023-05-10T01:07:25.808Z,63.60
2023-05-10T01:09:58.876Z,63.60
2023-05-10T01:12:31.592Z,63.60
2023-05-10T01:15:05.658Z,63.70
2023-05-10T01:17:40.574Z,63.70
2023-05-10T01:20:14.534Z,63.70
2023-05-10T01:23:14.250Z,63.70
2023-05-10T01:26:05.720Z,63.80
2023-05-10T01:29:00.824Z,63.80
2023-05-10T01:31:57.249Z,63.80
2023-05-10T01:34:42.217Z,63.90
2023-05-10T01:37:21.633Z,63.80
2023-05-10T01:40:09.972Z,63.80
2023-05-10T01:42:51.185Z,63.90
2023-05-10T01:45:41.783Z,63.80
2023-05-10T01:48:16.258Z,63.70
2023-05-10T01:50:52.443Z,63.70
2023-05-10T01:53:25.413Z,63.70
2023-05-10T01:55:59.954Z,63.70
2023-05-10T01:58:36.509Z,63.70
2023-05-10T02:01:11.083Z,63.70
2023-05-10T02:03:45.361Z,63.70
2023-05-10T02:06:21.488Z,63.80
2023-05-10T02:08:55.100Z,63.70
2023-05-10T02:11:29.659Z,63.60
2023-05-10T02:14:03.667Z,63.60
2023-05-10T02:16:38.255Z,63.60
2023-05-10T02:19:13.225Z,63.60
2023-05-10T02:21:47.129Z,63.60
2023-05-10T02:24:20.618Z,63.50
2023-05-10T02:26:57.088Z,63.50
2023-05-10T02:29:30.641Z,63.50
2023-05-10T02:32:03.858Z,63.50
2023-05-10T02:34:37.426Z,63.50
2023-05-10T02:37:11.371Z,63.50
2023-05-10T02:39:46.750Z,63.40
2023-05-10T02:42:27.975Z,63.50
2023-05-10T02:45:09.290Z,63.50
2023-05-10T02:47:42.180Z,63.40
2023-05-10T02:50:15.077Z,63.40
2023-05-10T02:53:03.139Z,63.40
2023-05-10T02:55:40.140Z,63.40
2023-05-10T02:58:12.960Z,63.50
2023-05-10T03:00:46.461Z,63.40
2023-05-10T03:03:19.023Z,63.40
2023-05-10T03:05:51.765Z,63.50
2023-05-10T03:08:25.295Z,63.50
2023-05-10T03:11:35.372Z,63.50
2023-05-10T03:14:25.448Z,63.50
2023-05-10T03:17:17.469Z,63.50
2023-05-10T03:19:57.526Z,63.60
2023-05-10T03:22:38.686Z,63.60
2023-05-10T03:25:13.783Z,63.50
2023-05-10T03:27:47.298Z,63.50
2023-05-10T03:30:20.850Z,63.40
2023-05-10T03:32:53.473Z,63.40
2023-05-10T03:35:26.812Z,63.40
2023-05-10T03:37:59.481Z,63.30
2023-05-10T03:40:33.289Z,63.30
2023-05-10T03:43:06.180Z,63.30
2023-05-10T03:45:38.733Z,63.20
2023-05-10T03:48:11.652Z,63.10
2023-05-10T03:50:44.299Z,63.10
2023-05-10T03:53:17.412Z,63.00
2023-05-10T03:55:50.217Z,62.90
2023-05-10T03:58:23.191Z,62.90
2023-05-10T04:00:56.581Z,63.00
2023-05-10T04:03:29.351Z,63.00
2023-05-10T04:06:03.181Z,63.10
2023-05-10T04:08:35.810Z,63.10
2023-05-10T04:11:12.840Z,63.00
2023-05-10T04:13:45.544Z,63.10
2023-05-10T04:16:18.337Z,63.10
2023-05-10T04:18:50.787Z,63.10
2023-05-10T04:21:23.404Z,63.20
2023-05-10T04:23:56.024Z,63.20
2023-05-10T04:26:28.890Z,63.20
2023-05-10T04:29:01.425Z,63.20
2023-05-10T04:31:34.022Z,63.10
2023-05-10T04:34:06.908Z,63.10
2023-05-10T04:36:39.590Z,63.20
2023-05-10T04:39:12.176Z,63.20
2023-05-10T04:41:44.783Z,63.20
2023-05-10T04:44:17.415Z,63.20
2023-05-10T04:46:50.059Z,63.20
2023-05-10T04:49:23.015Z,63.10
2023-05-10T04:51:55.825Z,63.20
2023-05-10T04:54:28.422Z,63.10
2023-05-10T04:57:01.042Z,62.90
2023-05-10T04:59:33.709Z,62.70
2023-05-10T05:02:07.173Z,62.50
2023-05-10T05:04:39.819Z,62.60
2023-05-10T05:07:12.414Z,62.40
2023-05-10T05:09:44.938Z,62.50
2023-05-10T05:12:17.563Z,62.40
2023-05-10T05:14:50.132Z,62.40
2023-05-10T05:17:22.742Z,62.20
2023-05-10T05:19:55.553Z,62.10
2023-05-10T05:22:30.805Z,62.10
2023-05-10T05:25:04.649Z,62.00
2023-05-10T05:27:37.137Z,62.00
2023-05-10T05:30:10.359Z,61.90
2023-05-10T05:32:42.975Z,61.70
2023-05-10T05:35:16.058Z,61.80
2023-05-10T05:37:48.801Z,61.70
2023-05-10T05:40:21.773Z,61.60
2023-05-10T05:42:54.228Z,61.50
2023-05-10T05:45:26.857Z,61.60
2023-05-10T05:47:59.667Z,61.40
2023-05-10T05:50:32.597Z,61.40
2023-05-10T05:53:05.264Z,61.40
2023-05-10T05:55:38.018Z,61.50
2023-05-10T05:58:10.572Z,61.60
2023-05-10T06:00:43.101Z,61.70
2023-05-10T06:03:15.938Z,61.80
2023-05-10T06:05:49.687Z,61.80
2023-05-10T06:08:22.243Z,61.90
2023-05-10T06:10:54.832Z,61.90
2023-05-10T06:13:33.377Z,61.90
2023-05-10T06:16:06.851Z,61.90
2023-05-10T06:18:39.308Z,61.90
2023-05-10T06:21:12.049Z,61.90
2023-05-10T06:23:45.181Z,61.80
2023-05-10T06:26:17.669Z,61.90
2023-05-10T06:28:50.229Z,61.90
2023-05-10T06:31:22.856Z,61.90
2023-05-10T06:33:56.745Z,62.80
2023-05-10T06:36:29.511Z,62.00
2023-05-10T06:39:02.305Z,62.00
2023-05-10T06:41:34.947Z,62.10
2023-05-10T06:44:07.476Z,62.10
2023-05-10T06:46:40.336Z,62.10
2023-05-10T06:49:13.038Z,62.10
2023-05-10T06:51:46.347Z,62.20
2023-05-10T06:54:19.212Z,62.30
2023-05-10T06:56:51.980Z,62.30
2023-05-10T06:59:25.437Z,62.20
2023-05-10T07:01:58.039Z,62.20
2023-05-10T07:04:30.749Z,62.10
2023-05-10T07:07:03.434Z,62.00
2023-05-10T07:09:36.213Z,62.00
2023-05-10T07:12:11.049Z,61.90
2023-05-10T07:14:44.830Z,61.90
2023-05-10T07:17:17.446Z,61.90
2023-05-10T07:19:50.106Z,61.90
2023-05-10T07:22:22.798Z,61.90
2023-05-10T07:24:55.791Z,61.90
2023-05-10T07:27:28.423Z,61.90
2023-05-10T07:30:01.702Z,61.90
2023-05-10T07:32:34.396Z,61.90
2023-05-10T07:35:07.994Z,61.90
2023-05-10T07:37:40.832Z,62.00
2023-05-10T07:40:13.557Z,62.10
2023-05-10T07:42:46.077Z,62.10
2023-05-10T07:45:19.778Z,62.20
2023-05-10T07:47:52.408Z,62.10
2023-05-10T07:50:25.117Z,62.10
2023-05-10T07:52:57.908Z,62.00
2023-05-10T07:55:30.705Z,62.00
2023-05-10T07:58:03.689Z,61.90
2023-05-10T08:00:36.305Z,62.00
2023-05-10T08:03:09.040Z,62.00
2023-05-10T08:05:41.856Z,62.10
2023-05-10T08:08:14.452Z,62.20
2023-05-10T08:10:47.707Z,62.20
2023-05-10T08:13:20.383Z,62.20
2023-05-10T08:15:54.376Z,62.10
2023-05-10T08:18:26.953Z,62.10
2023-05-10T08:20:59.602Z,62.10
2023-05-10T08:23:32.229Z,62.20
2023-05-10T08:26:05.014Z,62.20
2023-05-10T08:28:37.648Z,62.20
2023-05-10T08:31:10.245Z,62.20
2023-05-10T08:33:44.423Z,62.20
2023-05-10T08:36:20.946Z,62.30
2023-05-10T08:38:53.590Z,62.40
2023-05-10T08:41:29.544Z,62.40
2023-05-10T08:44:05.484Z,62.50
2023-05-10T08:46:43.867Z,62.60
2023-05-10T08:49:21.704Z,62.60
2023-05-10T08:51:57.176Z,62.70
2023-05-10T08:54:29.806Z,62.80
2023-05-10T08:57:03.003Z,62.60
2023-05-10T08:59:35.744Z,62.40
2023-05-10T09:02:11.249Z,62.20
2023-05-10T09:04:44.119Z,62.20
2023-05-10T09:07:17.263Z,62.20
2023-05-10T09:09:50.408Z,62.20
2023-05-10T09:12:23.104Z,62.20
2023-05-10T09:14:56.470Z,62.20
2023-05-10T09:17:30.368Z,62.20
2023-05-10T09:20:08.243Z,62.10
2023-05-10T09:22:41.440Z,62.00
2023-05-10T09:25:16.000Z,61.90
2023-05-10T09:27:49.991Z,61.90
2023-05-10T09:30:28.015Z,61.80
2023-05-10T09:33:01.691Z,61.70
2023-05-10T09:35:35.263Z,61.40
2023-05-10T09:38:07.836Z,61.30
2023-05-10T09:40:40.441Z,61.40
2023-05-10T09:43:15.250Z,61.40
2023-05-10T09:45:51.218Z,61.40
2023-05-10T09:48:29.057Z,61.60
2023-05-10T09:51:08.497Z,61.60
2023-05-10T09:53:41.405Z,61.70
2023-05-10T09:56:35.830Z,61.70
2023-05-10T09:59:11.075Z,62.00
2023-05-10T10:01:50.761Z,62.20
2023-05-10T10:04:23.475Z,62.60
2023-05-10T10:07:04.118Z,62.90
2023-05-10T10:09:36.990Z,65.60
2023-05-10T10:12:09.952Z,67.60
2023-05-10T10:14:43.159Z,68.90
2023-05-10T10:17:16.903Z,69.40
2023-05-10T10:19:50.503Z,69.90
2023-05-10T10:22:23.136Z,70.20
2023-05-10T10:24:59.024Z,70.50
2023-05-10T10:27:55.108Z,70.80
2023-05-10T10:30:43.507Z,71.30
2023-05-10T10:33:31.998Z,71.20
2023-05-10T10:36:05.966Z,71.40
2023-05-10T10:38:48.907Z,71.60
2023-05-10T10:41:45.679Z,71.70
2023-05-10T10:44:26.654Z,72.00
2023-05-10T10:47:02.666Z,71.80
2023-05-10T10:49:42.258Z,71.80
2023-05-10T10:52:32.519Z,71.70
2023-05-10T10:55:10.487Z,71.60
2023-05-10T10:57:53.095Z,71.40
2023-05-10T11:00:33.674Z,71.50
2023-05-10T11:03:08.607Z,71.40
2023-05-10T11:05:53.757Z,71.30
2023-05-10T11:08:36.891Z,71.40
2023-05-10T11:11:10.913Z,71.60
2023-05-10T11:13:48.441Z,71.80
2023-05-10T11:16:26.770Z,71.70
2023-05-10T11:19:03.865Z,71.30
2023-05-10T11:21:50.553Z,71.30
2023-05-10T11:24:28.266Z,71.10
2023-05-10T11:27:02.108Z,70.80
2023-05-10T11:29:34.723Z,70.80
2023-05-10T11:32:09.390Z,70.70
2023-05-10T11:34:42.127Z,70.70
2023-05-10T11:37:14.722Z,70.70
2023-05-10T11:39:51.103Z,70.80
2023-05-10T11:42:23.661Z,70.80
2023-05-10T11:44:56.363Z,70.60
2023-05-10T11:47:29.107Z,70.70
2023-05-10T11:50:02.057Z,70.90
2023-05-10T11:52:41.506Z,70.80
2023-05-10T11:55:14.068Z,70.50
2023-05-10T11:57:47.463Z,70.40
2023-05-10T12:00:20.325Z,70.50
2023-05-10T12:02:53.013Z,70.50
2023-05-10T12:05:26.050Z,71.00
2023-05-10T12:08:15.043Z,70.80
2023-05-10T12:10:47.625Z,70.60
2023-05-10T12:13:21.688Z,70.70
2023-05-10T12:15:54.247Z,70.70
2023-05-10T12:18:27.128Z,70.60
2023-05-10T12:21:05.575Z,70.50
2023-05-10T12:23:38.207Z,70.20
2023-05-10T12:26:11.680Z,70.20
2023-05-10T12:28:44.515Z,70.10
2023-05-10T12:31:17.325Z,69.90
2023-05-10T12:33:50.560Z,69.80
2023-05-10T12:36:25.144Z,69.60
2023-05-10T12:39:04.332Z,69.40
2023-05-10T12:41:37.237Z,68.90
2023-05-10T12:44:09.811Z,68.60
2023-05-10T12:46:42.436Z,68.60
2023-05-10T12:49:15.133Z,68.30
2023-05-10T12:51:47.743Z,68.00
2023-05-10T12:54:20.409Z,67.80
2023-05-10T12:56:53.074Z,67.70
2023-05-10T12:59:25.691Z,67.80
2023-05-10T13:01:59.150Z,67.60
2023-05-10T13:04:31.827Z,67.50
2023-05-10T13:07:04.395Z,67.40
2023-05-10T13:09:37.135Z,67.40
2023-05-10T13:12:10.227Z,67.40
2023-05-10T13:14:43.067Z,67.40
2023-05-10T13:17:15.748Z,67.10
2023-05-10T13:19:48.275Z,67.10
2023-05-10T13:22:32.484Z,67.10
2023-05-10T13:25:09.938Z,66.90
2023-05-10T13:27:42.291Z,66.80
2023-05-10T13:30:15.194Z,67.30
2023-05-10T13:32:47.824Z,66.70
2023-05-10T13:35:20.626Z,67.20
2023-05-10T13:37:54.657Z,66.80
2023-05-10T13:40:27.278Z,66.80
2023-05-10T13:42:59.955Z,66.80
2023-05-10T13:45:32.514Z,66.80
2023-05-10T13:48:05.474Z,66.70
2023-05-10T13:50:38.131Z,66.80
2023-05-10T13:53:10.659Z,66.70
2023-05-10T13:55:46.302Z,66.80
2023-05-10T13:58:18.765Z,66.80
2023-05-10T14:00:51.321Z,66.80
2023-05-10T14:03:24.062Z,66.90
2023-05-10T14:05:56.752Z,66.80
2023-05-10T14:08:29.396Z,66.80
2023-05-10T14:11:02.190Z,66.80
2023-05-10T14:13:34.996Z,66.80
2023-05-10T14:16:08.054Z,66.80
2023-05-10T14:18:40.525Z,67.00
2023-05-10T14:21:13.328Z,67.40
2023-05-10T14:23:45.959Z,67.50
2023-05-10T14:26:18.511Z,67.90
2023-05-10T14:28:50.990Z,68.10
2023-05-10T14:31:25.917Z,68.30
2023-05-10T14:33:58.963Z,68.40
2023-05-10T14:36:31.500Z,68.80
2023-05-10T14:39:04.227Z,68.90
2023-05-10T14:41:45.743Z,69.30
2023-05-10T14:44:18.400Z,69.50
2023-05-10T14:46:50.954Z,69.80
2023-05-10T14:49:26.102Z,70.20
2023-05-10T14:51:58.661Z,70.50
2023-05-10T14:54:31.358Z,70.80
2023-05-10T14:57:03.977Z,70.90
2023-05-10T14:59:36.811Z,71.10
2023-05-10T15:02:10.816Z,71.10
2023-05-10T15:04:44.252Z,71.20
2023-05-10T15:07:18.604Z,71.40
2023-05-10T15:09:53.135Z,71.50
2023-05-10T15:12:25.910Z,71.60
2023-05-10T15:14:58.478Z,71.70
2023-05-10T15:17:31.443Z,71.80
2023-05-10T15:20:04.837Z,72.00
2023-05-10T15:22:41.196Z,72.00
2023-05-10T15:25:14.823Z,72.20
2023-05-10T15:27:47.701Z,72.50
2023-05-10T15:30:20.287Z,72.70
2023-05-10T15:32:52.992Z,72.90
2023-05-10T15:35:26.906Z,72.90
2023-05-10T15:37:59.464Z,73.10
2023-05-10T15:40:31.984Z,73.00
2023-05-10T15:43:04.634Z,73.20
2023-05-10T15:45:37.751Z,73.30
2023-05-10T15:48:10.497Z,73.40
2023-05-10T15:50:43.090Z,73.50
2023-05-10T15:53:15.706Z,73.60
2023-05-10T15:55:48.356Z,73.60
2023-05-10T15:58:21.951Z,73.70
2023-05-10T16:00:55.440Z,73.70
2023-05-10T16:03:28.195Z,73.70
2023-05-10T16:06:01.476Z,73.70
2023-05-10T16:08:34.302Z,73.70
2023-05-10T16:11:08.320Z,73.90
2023-05-10T16:13:41.210Z,74.10
2023-05-10T16:16:13.804Z,74.50
2023-05-10T16:18:46.509Z,74.80
2023-05-10T16:21:19.237Z,75.00
2023-05-10T16:23:51.733Z,75.10
2023-05-10T16:26:24.322Z,75.20
2023-05-10T16:28:56.990Z,75.10
2023-05-10T16:31:29.837Z,75.30
2023-05-10T16:34:02.534Z,75.60
2023-05-10T16:36:35.593Z,75.90
2023-05-10T16:39:09.608Z,76.20
2023-05-10T16:41:42.132Z,76.30
2023-05-10T16:44:14.732Z,77.30
2023-05-10T16:46:49.086Z,76.70
2023-05-10T16:49:23.095Z,77.00
2023-05-10T16:51:56.449Z,77.30
2023-05-10T16:54:29.706Z,77.60
2023-05-10T16:57:02.492Z,77.80
2023-05-10T16:59:37.979Z,77.90
2023-05-10T17:02:10.592Z,78.20
2023-05-10T17:04:43.814Z,78.40
2023-05-10T17:07:16.954Z,78.50
2023-05-10T17:09:49.746Z,78.50
2023-05-10T17:12:22.390Z,78.50
2023-05-10T17:14:55.000Z,78.60
2023-05-10T17:17:27.708Z,78.70
2023-05-10T17:20:00.779Z,78.90
2023-05-10T17:22:33.382Z,78.90
2023-05-10T17:25:06.695Z,79.10
2023-05-10T17:27:39.543Z,79.20
2023-05-10T17:30:12.831Z,79.40
2023-05-10T17:32:45.487Z,79.50
2023-05-10T17:35:18.515Z,79.50
2023-05-10T17:37:51.212Z,79.70
2023-05-10T17:40:24.204Z,79.80
2023-05-10T17:42:56.960Z,79.80
2023-05-10T17:45:29.752Z,80.00
2023-05-10T17:48:02.470Z,80.00
2023-05-10T17:50:35.632Z,80.20
2023-05-10T17:53:08.152Z,80.10
2023-05-10T17:55:42.046Z,80.20
2023-05-10T17:58:14.751Z,80.10
2023-05-10T18:00:47.420Z,80.20
2023-05-10T18:03:21.206Z,80.30
2023-05-10T18:05:55.576Z,80.40
2023-05-10T18:08:30.694Z,80.50
2023-05-10T18:11:03.545Z,80.50
2023-05-10T18:13:36.142Z,80.70
2023-05-10T18:16:12.941Z,80.70
2023-05-10T18:18:45.722Z,80.80
2023-05-10T18:21:18.509Z,80.90
2023-05-10T18:23:51.071Z,80.90
2023-05-10T18:26:23.777Z,81.00
2023-05-10T18:28:57.320Z,81.10
2023-05-10T18:31:34.437Z,81.10
2023-05-10T18:34:26.517Z,81.10
2023-05-10T18:37:29.827Z,81.20
2023-05-10T18:40:21.689Z,81.20
2023-05-10T18:45:57.032Z,81.30
2023-05-10T18:48:29.612Z,81.30
2023-05-10T18:51:02.328Z,81.40
2023-05-10T18:53:35.189Z,81.50
2023-05-10T18:56:08.175Z,81.50
2023-05-10T18:58:41.351Z,81.40
2023-05-10T19:01:14.077Z,81.40
2023-05-10T19:03:46.802Z,81.30
2023-05-10T19:06:22.359Z,81.30
2023-05-10T19:08:55.190Z,81.30
2023-05-10T19:11:30.855Z,81.50
2023-05-10T19:14:07.720Z,81.50
2023-05-10T19:16:53.525Z,81.60
2023-05-10T19:19:36.685Z,81.70
2023-05-10T19:22:09.716Z,81.80
2023-05-10T19:24:43.094Z,81.90
2023-05-10T19:27:18.338Z,82.00
2023-05-10T19:29:54.515Z,81.80
2023-05-10T19:32:27.456Z,81.90
2023-05-10T19:35:00.993Z,81.90
2023-05-10T19:37:34.499Z,81.90
2023-05-10T19:40:10.839Z,82.00
2023-05-10T19:42:45.535Z,81.90
2023-05-10T19:45:19.500Z,81.90
2023-05-10T19:47:54.039Z,81.90
2023-05-10T19:50:27.207Z,81.90
2023-05-10T19:53:00.938Z,82.00
2023-05-10T19:55:34.171Z,82.10
2023-05-10T19:58:07.012Z,82.10
2023-05-10T20:00:39.634Z,82.10
2023-05-10T20:03:12.500Z,82.20
2023-05-10T20:05:45.108Z,82.30
2023-05-10T20:08:18.055Z,82.30
2023-05-10T20:10:51.007Z,82.30
2023-05-10T20:13:24.490Z,82.40
2023-05-10T20:16:00.102Z,82.50
2023-05-10T20:18:33.626Z,82.40
2023-05-10T20:21:07.413Z,82.50
2023-05-10T20:23:41.270Z,82.50
2023-05-10T20:26:15.160Z,82.50
2023-05-10T20:28:48.653Z,82.60
2023-05-10T20:31:21.569Z,82.60
2023-05-10T20:33:54.457Z,82.70
2023-05-10T20:36:27.536Z,82.60
2023-05-10T20:39:00.101Z,82.80
2023-05-10T20:41:33.318Z,82.70
2023-05-10T20:44:06.999Z,82.80
2023-05-10T20:46:40.784Z,82.90
2023-05-10T20:49:15.155Z,82.80
2023-05-10T20:51:49.364Z,82.90
2023-05-10T20:54:24.715Z,82.90
2023-05-10T20:56:58.131Z,82.90
2023-05-10T20:59:31.016Z,82.90
2023-05-10T21:02:03.761Z,83.00
2023-05-10T21:04:36.509Z,83.00
2023-05-10T21:07:09.164Z,83.00
2023-05-10T21:09:41.864Z,83.10
2023-05-10T21:12:14.592Z,83.10
2023-05-10T21:14:48.015Z,83.10
2023-05-10T21:17:20.715Z,83.10
2023-05-10T21:19:53.280Z,83.10
2023-05-10T21:22:26.566Z,83.20
2023-05-10T21:24:59.185Z,83.20
2023-05-10T21:27:31.893Z,83.20
2023-05-10T21:30:06.619Z,83.30
2023-05-10T21:32:39.384Z,83.20
2023-05-10T21:35:13.280Z,83.30
2023-05-10T21:37:45.914Z,83.30
2023-05-10T21:40:18.905Z,83.30
2023-05-10T21:42:51.563Z,83.30
2023-05-10T21:45:24.509Z,83.30
2023-05-10T21:47:57.141Z,83.20
2023-05-10T21:50:29.793Z,83.20
2023-05-10T21:53:02.742Z,83.30
2023-05-10T21:55:35.436Z,83.20
2023-05-10T21:58:08.034Z,83.20
2023-05-10T22:00:40.724Z,83.30
2023-05-10T22:03:13.577Z,83.30
2023-05-10T22:05:46.313Z,83.30
2023-05-10T22:08:18.904Z,83.40
2023-05-10T22:10:52.468Z,83.30
2023-05-10T22:13:25.952Z,83.30
2023-05-10T22:15:58.671Z,83.20
2023-05-10T22:18:31.342Z,83.10
2023-05-10T22:21:04.074Z,83.00
2023-05-10T22:23:36.690Z,82.80
2023-05-10T22:26:09.284Z,82.70
2023-05-10T22:28:41.874Z,82.60
2023-05-10T22:31:14.619Z,82.50
2023-05-10T22:33:47.377Z,82.30
2023-05-10T22:36:20.001Z,82.20
2023-05-10T22:38:52.598Z,82.20
2023-05-10T22:41:25.327Z,82.20
2023-05-10T22:43:58.497Z,82.10
2023-05-10T22:46:33.701Z,82.10
2023-05-10T22:49:06.510Z,82.30
2023-05-10T22:51:40.657Z,82.10
2023-05-10T22:54:13.269Z,82.00
2023-05-10T22:56:46.376Z,82.10
2023-05-10T22:59:19.059Z,82.00
2023-05-10T23:01:51.753Z,82.10
2023-05-10T23:04:24.680Z,82.00
2023-05-10T23:06:57.308Z,82.00
2023-05-10T23:09:30.037Z,82.00
2023-05-10T23:12:03.167Z,82.00
2023-05-10T23:14:35.668Z,82.00
2023-05-10T23:17:08.689Z,82.10
2023-05-10T23:19:41.285Z,81.80
2023-05-10T23:22:14.094Z,81.90
2023-05-10T23:24:46.628Z,81.90
2023-05-10T23:27:19.283Z,81.90
2023-05-10T23:29:55.829Z,81.90
2023-05-10T23:32:28.413Z,81.70
2023-05-10T23:35:01.186Z,81.70
2023-05-10T23:37:33.781Z,81.70
2023-05-10T23:40:07.033Z,81.70
2023-05-10T23:42:39.692Z,81.60
2023-05-10T23:45:13.558Z,81.70
2023-05-10T23:47:46.154Z,81.60
2023-05-10T23:50:19.020Z,81.60
2023-05-10T23:52:51.834Z,81.70
2023-05-10T23:55:24.427Z,81.60
2023-05-10T23:57:57.253Z,81.60
